sensor_id;sensor_type;location;lat;lon;timestamp;P1;durP1;ratioP1;P2;durP2;ratioP2
40244;SDS011;25963;42.694;23.600;2022-11-13T00:00:56;17.23;;;11.20;;
40244;SDS011;25963;42.694;23.600;2022-11-13T00:03:21;15.73;;;11.27;;
40244;SDS011;25963;42.694;23.600;2022-11-13T00:05:47;17.15;;;12.32;;
40244;SDS011;25963;42.694;23.600;2022-11-13T00:08:13;15.63;;;11.00;;
40244;SDS011;25963;42.694;23.600;2022-11-13T00:10:38;15.27;;;9.57;;
40244;SDS011;25963;42.694;23.600;2022-11-13T00:13:04;12.02;;;8.52;;
40244;SDS011;25963;42.694;23.600;2022-11-13T00:15:30;13.13;;;8.93;;
40244;SDS011;25963;42.694;23.600;2022-11-13T00:17:55;14.32;;;8.05;;
40244;SDS011;25963;42.694;23.600;2022-11-13T00:20:24;10.32;;;8.38;;
40244;SDS011;25963;42.694;23.600;2022-11-13T00:22:50;9.88;;;7.78;;
40244;SDS011;25963;42.694;23.600;2022-11-13T00:25:15;11.07;;;8.20;;
40244;SDS011;25963;42.694;23.600;2022-11-13T00:27:41;11.40;;;7.53;;
40244;SDS011;25963;42.694;23.600;2022-11-13T00:30:06;10.90;;;7.22;;
40244;SDS011;25963;42.694;23.600;2022-11-13T00:32:32;10.85;;;7.47;;
40244;SDS011;25963;42.694;23.600;2022-11-13T00:34:58;8.35;;;6.45;;
40244;SDS011;25963;42.694;23.600;2022-11-13T00:37:23;10.80;;;6.82;;
40244;SDS011;25963;42.694;23.600;2022-11-13T00:39:48;13.55;;;8.25;;
40244;SDS011;25963;42.694;23.600;2022-11-13T00:42:14;12.90;;;8.50;;
40244;SDS011;25963;42.694;23.600;2022-11-13T00:44:39;11.30;;;8.30;;
40244;SDS011;25963;42.694;23.600;2022-11-13T00:47:05;12.77;;;8.93;;
40244;SDS011;25963;42.694;23.600;2022-11-13T00:49:30;11.50;;;7.78;;
40244;SDS011;25963;42.694;23.600;2022-11-13T00:51:56;11.95;;;8.32;;
40244;SDS011;25963;42.694;23.600;2022-11-13T00:54:23;10.65;;;8.05;;
40244;SDS011;25963;42.694;23.600;2022-11-13T00:56:49;10.13;;;7.55;;
40244;SDS011;25963;42.694;23.600;2022-11-13T00:59:14;12.23;;;8.68;;
40244;SDS011;25963;42.694;23.600;2022-11-13T01:01:40;34.47;;;17.50;;
40244;SDS011;25963;42.694;23.600;2022-11-13T01:04:05;23.15;;;12.32;;
40244;SDS011;25963;42.694;23.600;2022-11-13T01:06:30;34.58;;;19.17;;
40244;SDS011;25963;42.694;23.600;2022-11-13T01:08:56;23.38;;;15.02;;
40244;SDS011;25963;42.694;23.600;2022-11-13T01:11:24;12.93;;;8.38;;
40244;SDS011;25963;42.694;23.600;2022-11-13T01:13:51;12.13;;;7.50;;
40244;SDS011;25963;42.694;23.600;2022-11-13T01:16:18;13.07;;;8.32;;
40244;SDS011;25963;42.694;23.600;2022-11-13T01:18:48;10.60;;;7.97;;
40244;SDS011;25963;42.694;23.600;2022-11-13T01:21:18;12.35;;;7.88;;
40244;SDS011;25963;42.694;23.600;2022-11-13T01:26:14;9.90;;;7.10;;
40244;SDS011;25963;42.694;23.600;2022-11-13T01:28:42;12.13;;;6.93;;
40244;SDS011;25963;42.694;23.600;2022-11-13T01:31:10;12.55;;;7.30;;
40244;SDS011;25963;42.694;23.600;2022-11-13T01:33:37;10.98;;;7.72;;
40244;SDS011;25963;42.694;23.600;2022-11-13T01:36:06;10.05;;;7.13;;
40244;SDS011;25963;42.694;23.600;2022-11-13T01:38:33;11.48;;;7.78;;
40244;SDS011;25963;42.694;23.600;2022-11-13T01:40:59;11.82;;;8.00;;
40244;SDS011;25963;42.694;23.600;2022-11-13T01:43:26;12.77;;;8.27;;
40244;SDS011;25963;42.694;23.600;2022-11-13T01:48:22;11.93;;;8.77;;
40244;SDS011;25963;42.694;23.600;2022-11-13T01:51:15;13.32;;;9.18;;
40244;SDS011;25963;42.694;23.600;2022-11-13T01:53:48;11.10;;;7.97;;
40244;SDS011;25963;42.694;23.600;2022-11-13T01:56:14;11.15;;;8.93;;
40244;SDS011;25963;42.694;23.600;2022-11-13T01:58:41;12.95;;;9.15;;
40244;SDS011;25963;42.694;23.600;2022-11-13T02:01:10;13.65;;;9.55;;
40244;SDS011;25963;42.694;23.600;2022-11-13T02:03:35;11.93;;;8.95;;
40244;SDS011;25963;42.694;23.600;2022-11-13T02:06:01;11.77;;;8.60;;
40244;SDS011;25963;42.694;23.600;2022-11-13T02:08:27;14.15;;;8.70;;
40244;SDS011;25963;42.694;23.600;2022-11-13T02:10:53;14.77;;;9.27;;
40244;SDS011;25963;42.694;23.600;2022-11-13T02:13:18;13.07;;;9.30;;
40244;SDS011;25963;42.694;23.600;2022-11-13T02:15:45;13.15;;;8.90;;
40244;SDS011;25963;42.694;23.600;2022-11-13T02:18:12;13.35;;;9.13;;
40244;SDS011;25963;42.694;23.600;2022-11-13T02:26:05;13.60;;;8.98;;
40244;SDS011;25963;42.694;23.600;2022-11-13T02:28:33;15.70;;;9.27;;
40244;SDS011;25963;42.694;23.600;2022-11-13T02:31:06;14.45;;;9.63;;
40244;SDS011;25963;42.694;23.600;2022-11-13T02:33:35;14.18;;;9.25;;
40244;SDS011;25963;42.694;23.600;2022-11-13T02:36:00;13.73;;;9.57;;
40244;SDS011;25963;42.694;23.600;2022-11-13T02:38:26;12.48;;;8.23;;
40244;SDS011;25963;42.694;23.600;2022-11-13T02:40:52;15.80;;;9.00;;
40244;SDS011;25963;42.694;23.600;2022-11-13T02:43:17;13.02;;;8.57;;
40244;SDS011;25963;42.694;23.600;2022-11-13T02:45:43;14.65;;;8.80;;
40244;SDS011;25963;42.694;23.600;2022-11-13T02:48:08;17.10;;;10.90;;
40244;SDS011;25963;42.694;23.600;2022-11-13T02:50:34;12.98;;;8.68;;
40244;SDS011;25963;42.694;23.600;2022-11-13T02:53:01;13.73;;;9.38;;
40244;SDS011;25963;42.694;23.600;2022-11-13T02:55:28;13.48;;;9.35;;
40244;SDS011;25963;42.694;23.600;2022-11-13T02:57:53;11.38;;;8.43;;
40244;SDS011;25963;42.694;23.600;2022-11-13T03:00:19;11.50;;;8.48;;
40244;SDS011;25963;42.694;23.600;2022-11-13T03:02:44;10.90;;;8.23;;
40244;SDS011;25963;42.694;23.600;2022-11-13T03:05:10;11.75;;;8.30;;
40244;SDS011;25963;42.694;23.600;2022-11-13T03:07:35;11.73;;;9.00;;
40244;SDS011;25963;42.694;23.600;2022-11-13T03:10:00;14.75;;;9.45;;
40244;SDS011;25963;42.694;23.600;2022-11-13T03:12:26;11.32;;;9.43;;
40244;SDS011;25963;42.694;23.600;2022-11-13T03:14:51;14.93;;;8.70;;
40244;SDS011;25963;42.694;23.600;2022-11-13T03:17:17;15.95;;;8.63;;
40244;SDS011;25963;42.694;23.600;2022-11-13T03:19:42;11.27;;;8.90;;
40244;SDS011;25963;42.694;23.600;2022-11-13T03:22:08;14.32;;;9.35;;
40244;SDS011;25963;42.694;23.600;2022-11-13T03:24:33;12.23;;;8.98;;
40244;SDS011;25963;42.694;23.600;2022-11-13T03:26:58;12.65;;;8.77;;
40244;SDS011;25963;42.694;23.600;2022-11-13T03:29:24;11.70;;;9.13;;
40244;SDS011;25963;42.694;23.600;2022-11-13T03:31:49;11.18;;;8.10;;
40244;SDS011;25963;42.694;23.600;2022-11-13T03:34:15;9.93;;;7.95;;
40244;SDS011;25963;42.694;23.600;2022-11-13T03:36:41;13.50;;;8.43;;
40244;SDS011;25963;42.694;23.600;2022-11-13T03:39:06;13.20;;;8.68;;
40244;SDS011;25963;42.694;23.600;2022-11-13T03:41:32;12.40;;;9.90;;
40244;SDS011;25963;42.694;23.600;2022-11-13T03:43:57;13.63;;;10.00;;
40244;SDS011;25963;42.694;23.600;2022-11-13T03:46:22;13.10;;;8.32;;
40244;SDS011;25963;42.694;23.600;2022-11-13T03:48:48;11.05;;;8.18;;
40244;SDS011;25963;42.694;23.600;2022-11-13T03:51:13;12.30;;;8.10;;
40244;SDS011;25963;42.694;23.600;2022-11-13T03:53:39;10.23;;;7.65;;
40244;SDS011;25963;42.694;23.600;2022-11-13T03:56:04;12.52;;;7.85;;
40244;SDS011;25963;42.694;23.600;2022-11-13T03:58:30;11.05;;;7.47;;
40244;SDS011;25963;42.694;23.600;2022-11-13T04:00:56;11.93;;;8.10;;
40244;SDS011;25963;42.694;23.600;2022-11-13T04:03:21;11.90;;;8.40;;
40244;SDS011;25963;42.694;23.600;2022-11-13T04:05:47;12.57;;;8.85;;
40244;SDS011;25963;42.694;23.600;2022-11-13T04:08:14;14.48;;;7.93;;
40244;SDS011;25963;42.694;23.600;2022-11-13T04:10:40;13.35;;;8.77;;
40244;SDS011;25963;42.694;23.600;2022-11-13T04:13:05;14.02;;;8.82;;
40244;SDS011;25963;42.694;23.600;2022-11-13T04:15:31;10.25;;;8.48;;
40244;SDS011;25963;42.694;23.600;2022-11-13T04:17:56;11.38;;;8.32;;
40244;SDS011;25963;42.694;23.600;2022-11-13T04:20:22;12.25;;;8.55;;
40244;SDS011;25963;42.694;23.600;2022-11-13T04:22:47;14.13;;;9.05;;
40244;SDS011;25963;42.694;23.600;2022-11-13T04:25:13;14.63;;;10.07;;
40244;SDS011;25963;42.694;23.600;2022-11-13T04:27:38;16.90;;;11.77;;
40244;SDS011;25963;42.694;23.600;2022-11-13T04:30:04;17.52;;;11.35;;
40244;SDS011;25963;42.694;23.600;2022-11-13T04:32:30;18.60;;;12.75;;
40244;SDS011;25963;42.694;23.600;2022-11-13T04:34:56;17.17;;;11.68;;
40244;SDS011;25963;42.694;23.600;2022-11-13T04:37:21;18.10;;;12.48;;
40244;SDS011;25963;42.694;23.600;2022-11-13T04:39:47;16.83;;;11.52;;
40244;SDS011;25963;42.694;23.600;2022-11-13T04:42:12;14.48;;;11.20;;
40244;SDS011;25963;42.694;23.600;2022-11-13T04:44:56;15.80;;;11.35;;
40244;SDS011;25963;42.694;23.600;2022-11-13T04:47:22;16.38;;;11.25;;
40244;SDS011;25963;42.694;23.600;2022-11-13T04:49:47;18.10;;;12.52;;
40244;SDS011;25963;42.694;23.600;2022-11-13T04:52:13;17.20;;;11.85;;
40244;SDS011;25963;42.694;23.600;2022-11-13T04:54:38;19.33;;;12.50;;
40244;SDS011;25963;42.694;23.600;2022-11-13T04:57:04;20.35;;;13.38;;
40244;SDS011;25963;42.694;23.600;2022-11-13T04:59:29;18.38;;;11.82;;
40244;SDS011;25963;42.694;23.600;2022-11-13T05:01:55;23.48;;;12.32;;
40244;SDS011;25963;42.694;23.600;2022-11-13T05:04:20;17.40;;;11.75;;
40244;SDS011;25963;42.694;23.600;2022-11-13T05:06:46;22.05;;;12.38;;
40244;SDS011;25963;42.694;23.600;2022-11-13T05:09:12;18.02;;;12.63;;
40244;SDS011;25963;42.694;23.600;2022-11-13T05:11:37;19.27;;;12.95;;
40244;SDS011;25963;42.694;23.600;2022-11-13T05:14:03;19.73;;;13.20;;
40244;SDS011;25963;42.694;23.600;2022-11-13T05:16:29;23.30;;;13.65;;
40244;SDS011;25963;42.694;23.600;2022-11-13T05:18:56;17.23;;;11.85;;
40244;SDS011;25963;42.694;23.600;2022-11-13T05:21:22;19.55;;;12.70;;
40244;SDS011;25963;42.694;23.600;2022-11-13T05:23:48;20.95;;;12.57;;
40244;SDS011;25963;42.694;23.600;2022-11-13T05:26:13;25.45;;;12.68;;
40244;SDS011;25963;42.694;23.600;2022-11-13T05:28:39;16.88;;;11.65;;
40244;SDS011;25963;42.694;23.600;2022-11-13T05:33:37;17.48;;;11.45;;
40244;SDS011;25963;42.694;23.600;2022-11-13T05:36:05;16.92;;;11.77;;
40244;SDS011;25963;42.694;23.600;2022-11-13T05:38:33;15.43;;;10.68;;
40244;SDS011;25963;42.694;23.600;2022-11-13T05:41:03;17.77;;;11.18;;
40244;SDS011;25963;42.694;23.600;2022-11-13T05:43:31;17.52;;;10.50;;
40244;SDS011;25963;42.694;23.600;2022-11-13T05:46:00;16.23;;;11.25;;
40244;SDS011;25963;42.694;23.600;2022-11-13T05:48:26;17.20;;;10.73;;
40244;SDS011;25963;42.694;23.600;2022-11-13T05:50:52;17.55;;;12.27;;
40244;SDS011;25963;42.694;23.600;2022-11-13T05:53:17;14.90;;;9.80;;
40244;SDS011;25963;42.694;23.600;2022-11-13T05:55:43;14.57;;;9.65;;
40244;SDS011;25963;42.694;23.600;2022-11-13T05:58:08;14.18;;;11.27;;
40244;SDS011;25963;42.694;23.600;2022-11-13T06:00:35;13.95;;;10.48;;
40244;SDS011;25963;42.694;23.600;2022-11-13T06:03:01;14.10;;;10.27;;
40244;SDS011;25963;42.694;23.600;2022-11-13T06:05:26;16.58;;;11.50;;
40244;SDS011;25963;42.694;23.600;2022-11-13T06:07:55;20.70;;;12.20;;
40244;SDS011;25963;42.694;23.600;2022-11-13T06:10:20;16.80;;;11.20;;
40244;SDS011;25963;42.694;23.600;2022-11-13T06:12:46;18.65;;;12.32;;
40244;SDS011;25963;42.694;23.600;2022-11-13T06:15:11;15.57;;;10.52;;
40244;SDS011;25963;42.694;23.600;2022-11-13T06:17:36;16.52;;;10.20;;
40244;SDS011;25963;42.694;23.600;2022-11-13T06:20:02;14.80;;;10.23;;
40244;SDS011;25963;42.694;23.600;2022-11-13T06:22:28;15.07;;;9.45;;
40244;SDS011;25963;42.694;23.600;2022-11-13T06:24:53;14.13;;;10.23;;
40244;SDS011;25963;42.694;23.600;2022-11-13T06:27:19;16.77;;;11.43;;
40244;SDS011;25963;42.694;23.600;2022-11-13T06:29:44;17.10;;;11.35;;
40244;SDS011;25963;42.694;23.600;2022-11-13T06:32:11;14.73;;;10.52;;
40244;SDS011;25963;42.694;23.600;2022-11-13T06:34:36;15.32;;;10.95;;
40244;SDS011;25963;42.694;23.600;2022-11-13T06:37:01;16.10;;;10.95;;
40244;SDS011;25963;42.694;23.600;2022-11-13T06:39:27;16.40;;;11.63;;
40244;SDS011;25963;42.694;23.600;2022-11-13T06:41:52;15.38;;;10.98;;
40244;SDS011;25963;42.694;23.600;2022-11-13T06:44:18;62.88;;;35.42;;
40244;SDS011;25963;42.694;23.600;2022-11-13T06:46:43;191.45;;;86.20;;
40244;SDS011;25963;42.694;23.600;2022-11-13T06:49:08;52.08;;;24.70;;
40244;SDS011;25963;42.694;23.600;2022-11-13T06:51:34;154.98;;;65.80;;
40244;SDS011;25963;42.694;23.600;2022-11-13T06:53:59;70.82;;;32.85;;
40244;SDS011;25963;42.694;23.600;2022-11-13T06:56:25;21.67;;;13.95;;
40244;SDS011;25963;42.694;23.600;2022-11-13T06:58:51;20.30;;;13.57;;
40244;SDS011;25963;42.694;23.600;2022-11-13T07:01:22;52.40;;;24.65;;
40244;SDS011;25963;42.694;23.600;2022-11-13T07:03:48;19.38;;;12.23;;
40244;SDS011;25963;42.694;23.600;2022-11-13T07:06:15;33.17;;;19.27;;
40244;SDS011;25963;42.694;23.600;2022-11-13T07:08:49;256.90;;;96.03;;
40244;SDS011;25963;42.694;23.600;2022-11-13T07:11:17;125.05;;;54.20;;
40244;SDS011;25963;42.694;23.600;2022-11-13T07:13:44;84.47;;;41.08;;
40244;SDS011;25963;42.694;23.600;2022-11-13T07:16:10;26.00;;;14.50;;
40244;SDS011;25963;42.694;23.600;2022-11-13T07:18:41;58.45;;;33.17;;
40244;SDS011;25963;42.694;23.600;2022-11-13T07:21:08;47.03;;;30.33;;
40244;SDS011;25963;42.694;23.600;2022-11-13T07:23:35;21.15;;;14.88;;
40244;SDS011;25963;42.694;23.600;2022-11-13T07:26:04;26.02;;;17.92;;
40244;SDS011;25963;42.694;23.600;2022-11-13T07:28:33;20.02;;;13.68;;
40244;SDS011;25963;42.694;23.600;2022-11-13T07:30:59;21.55;;;14.93;;
40244;SDS011;25963;42.694;23.600;2022-11-13T07:33:25;23.23;;;15.38;;
40244;SDS011;25963;42.694;23.600;2022-11-13T07:35:57;18.77;;;13.07;;
40244;SDS011;25963;42.694;23.600;2022-11-13T07:38:23;16.60;;;12.50;;
40244;SDS011;25963;42.694;23.600;2022-11-13T07:40:49;16.00;;;10.57;;
40244;SDS011;25963;42.694;23.600;2022-11-13T07:43:14;22.20;;;14.05;;
40244;SDS011;25963;42.694;23.600;2022-11-13T07:45:40;14.80;;;10.40;;
40244;SDS011;25963;42.694;23.600;2022-11-13T07:48:05;22.15;;;14.27;;
40244;SDS011;25963;42.694;23.600;2022-11-13T07:50:32;22.73;;;16.30;;
40244;SDS011;25963;42.694;23.600;2022-11-13T07:53:03;17.63;;;12.85;;
40244;SDS011;25963;42.694;23.600;2022-11-13T07:55:32;16.42;;;12.70;;
40244;SDS011;25963;42.694;23.600;2022-11-13T07:57:59;20.23;;;14.68;;
40244;SDS011;25963;42.694;23.600;2022-11-13T08:00:26;18.25;;;13.88;;
40244;SDS011;25963;42.694;23.600;2022-11-13T08:02:52;22.70;;;17.27;;
40244;SDS011;25963;42.694;23.600;2022-11-13T08:05:18;18.58;;;14.55;;
40244;SDS011;25963;42.694;23.600;2022-11-13T08:07:50;25.55;;;18.60;;
40244;SDS011;25963;42.694;23.600;2022-11-13T08:10:16;26.27;;;17.42;;
40244;SDS011;25963;42.694;23.600;2022-11-13T08:12:43;31.02;;;19.00;;
40244;SDS011;25963;42.694;23.600;2022-11-13T08:15:09;22.25;;;14.93;;
40244;SDS011;25963;42.694;23.600;2022-11-13T08:17:35;23.33;;;15.43;;
40244;SDS011;25963;42.694;23.600;2022-11-13T08:20:00;21.45;;;16.08;;
40244;SDS011;25963;42.694;23.600;2022-11-13T08:22:28;25.73;;;16.95;;
40244;SDS011;25963;42.694;23.600;2022-11-13T08:24:54;25.95;;;18.35;;
40244;SDS011;25963;42.694;23.600;2022-11-13T08:27:20;24.73;;;17.73;;
40244;SDS011;25963;42.694;23.600;2022-11-13T08:29:47;28.00;;;20.95;;
40244;SDS011;25963;42.694;23.600;2022-11-13T08:32:17;30.00;;;20.25;;
40244;SDS011;25963;42.694;23.600;2022-11-13T08:34:46;24.00;;;15.18;;
40244;SDS011;25963;42.694;23.600;2022-11-13T08:37:11;19.88;;;15.88;;
40244;SDS011;25963;42.694;23.600;2022-11-13T08:39:37;22.85;;;17.63;;
40244;SDS011;25963;42.694;23.600;2022-11-13T08:42:02;25.50;;;17.55;;
40244;SDS011;25963;42.694;23.600;2022-11-13T08:44:28;27.95;;;19.35;;
40244;SDS011;25963;42.694;23.600;2022-11-13T08:46:54;26.17;;;18.55;;
40244;SDS011;25963;42.694;23.600;2022-11-13T08:49:19;31.92;;;19.15;;
40244;SDS011;25963;42.694;23.600;2022-11-13T08:51:45;42.70;;;24.10;;
40244;SDS011;25963;42.694;23.600;2022-11-13T08:54:11;39.22;;;26.13;;
40244;SDS011;25963;42.694;23.600;2022-11-13T08:56:36;30.02;;;22.67;;
40244;SDS011;25963;42.694;23.600;2022-11-13T08:59:02;26.10;;;19.30;;
40244;SDS011;25963;42.694;23.600;2022-11-13T09:01:27;22.83;;;19.38;;
40244;SDS011;25963;42.694;23.600;2022-11-13T09:03:53;21.73;;;17.52;;
40244;SDS011;25963;42.694;23.600;2022-11-13T09:06:18;20.90;;;17.05;;
40244;SDS011;25963;42.694;23.600;2022-11-13T09:08:44;24.08;;;18.88;;
40244;SDS011;25963;42.694;23.600;2022-11-13T09:11:09;22.33;;;17.27;;
40244;SDS011;25963;42.694;23.600;2022-11-13T09:13:35;23.17;;;17.73;;
40244;SDS011;25963;42.694;23.600;2022-11-13T09:16:01;25.83;;;19.13;;
40244;SDS011;25963;42.694;23.600;2022-11-13T09:18:27;26.00;;;20.83;;
40244;SDS011;25963;42.694;23.600;2022-11-13T09:20:53;26.30;;;20.13;;
40244;SDS011;25963;42.694;23.600;2022-11-13T09:23:19;28.40;;;19.63;;
40244;SDS011;25963;42.694;23.600;2022-11-13T09:25:45;26.50;;;20.52;;
40244;SDS011;25963;42.694;23.600;2022-11-13T09:28:11;21.65;;;18.17;;
40244;SDS011;25963;42.694;23.600;2022-11-13T09:30:37;26.60;;;21.00;;
40244;SDS011;25963;42.694;23.600;2022-11-13T09:33:03;20.55;;;17.55;;
40244;SDS011;25963;42.694;23.600;2022-11-13T09:35:30;25.42;;;18.67;;
40244;SDS011;25963;42.694;23.600;2022-11-13T09:38:03;24.67;;;17.70;;
40244;SDS011;25963;42.694;23.600;2022-11-13T09:40:37;23.60;;;18.30;;
40244;SDS011;25963;42.694;23.600;2022-11-13T09:43:10;26.95;;;21.60;;
40244;SDS011;25963;42.694;23.600;2022-11-13T09:50:44;34.63;;;24.67;;
40244;SDS011;25963;42.694;23.600;2022-11-13T09:53:10;33.25;;;25.33;;
40244;SDS011;25963;42.694;23.600;2022-11-13T09:55:40;28.17;;;22.13;;
40244;SDS011;25963;42.694;23.600;2022-11-13T09:58:23;28.02;;;21.40;;
40244;SDS011;25963;42.694;23.600;2022-11-13T10:01:05;28.83;;;21.13;;
40244;SDS011;25963;42.694;23.600;2022-11-13T10:03:39;43.08;;;30.90;;
40244;SDS011;25963;42.694;23.600;2022-11-13T10:11:38;41.13;;;26.05;;
40244;SDS011;25963;42.694;23.600;2022-11-13T10:14:13;36.13;;;24.15;;
40244;SDS011;25963;42.694;23.600;2022-11-13T10:19:20;33.70;;;23.50;;
40244;SDS011;25963;42.694;23.600;2022-11-13T10:22:01;22.88;;;17.85;;
40244;SDS011;25963;42.694;23.600;2022-11-13T10:24:41;27.13;;;21.65;;
40244;SDS011;25963;42.694;23.600;2022-11-13T10:27:12;27.55;;;21.75;;
40244;SDS011;25963;42.694;23.600;2022-11-13T10:29:39;27.17;;;20.02;;
40244;SDS011;25963;42.694;23.600;2022-11-13T10:34:51;25.67;;;18.85;;
40244;SDS011;25963;42.694;23.600;2022-11-13T10:38:15;28.98;;;21.25;;
40244;SDS011;25963;42.694;23.600;2022-11-13T10:40:33;27.85;;;20.77;;
40244;SDS011;25963;42.694;23.600;2022-11-13T10:43:20;26.55;;;21.30;;
40244;SDS011;25963;42.694;23.600;2022-11-13T10:45:55;26.38;;;17.95;;
40244;SDS011;25963;42.694;23.600;2022-11-13T10:48:29;26.95;;;19.70;;
40244;SDS011;25963;42.694;23.600;2022-11-13T10:53:49;25.13;;;18.03;;
40244;SDS011;25963;42.694;23.600;2022-11-13T11:01:42;26.90;;;19.63;;
40244;SDS011;25963;42.694;23.600;2022-11-13T11:04:19;26.77;;;19.80;;
40244;SDS011;25963;42.694;23.600;2022-11-13T11:06:53;23.60;;;19.40;;
40244;SDS011;25963;42.694;23.600;2022-11-13T11:17:14;22.88;;;19.45;;
40244;SDS011;25963;42.694;23.600;2022-11-13T11:19:42;26.52;;;20.00;;
40244;SDS011;25963;42.694;23.600;2022-11-13T11:22:18;23.05;;;19.33;;
40244;SDS011;25963;42.694;23.600;2022-11-13T11:24:55;25.02;;;19.52;;
40244;SDS011;25963;42.694;23.600;2022-11-13T11:27:37;22.98;;;19.77;;
40244;SDS011;25963;42.694;23.600;2022-11-13T11:35:19;22.80;;;17.48;;
40244;SDS011;25963;42.694;23.600;2022-11-13T11:38:32;33.78;;;24.15;;
40244;SDS011;25963;42.694;23.600;2022-11-13T11:40:51;30.80;;;23.73;;
40244;SDS011;25963;42.694;23.600;2022-11-13T11:46:26;24.75;;;19.90;;
40244;SDS011;25963;42.694;23.600;2022-11-13T11:48:55;29.88;;;21.67;;
40244;SDS011;25963;42.694;23.600;2022-11-13T11:52:12;27.48;;;20.20;;
40244;SDS011;25963;42.694;23.600;2022-11-13T11:57:06;26.47;;;20.93;;
40244;SDS011;25963;42.694;23.600;2022-11-13T12:13:42;30.23;;;23.02;;
40244;SDS011;25963;42.694;23.600;2022-11-13T12:16:17;24.23;;;19.92;;
40244;SDS011;25963;42.694;23.600;2022-11-13T12:19:17;24.98;;;20.30;;
40244;SDS011;25963;42.694;23.600;2022-11-13T12:22:02;31.77;;;23.42;;
40244;SDS011;25963;42.694;23.600;2022-11-13T12:24:49;37.03;;;26.88;;
40244;SDS011;25963;42.694;23.600;2022-11-13T12:30:18;30.58;;;19.98;;
40244;SDS011;25963;42.694;23.600;2022-11-13T12:35:30;29.80;;;23.55;;
40244;SDS011;25963;42.694;23.600;2022-11-13T12:46:10;38.40;;;27.73;;
40244;SDS011;25963;42.694;23.600;2022-11-13T12:48:39;35.10;;;26.42;;
40244;SDS011;25963;42.694;23.600;2022-11-13T12:51:07;26.48;;;20.73;;
40244;SDS011;25963;42.694;23.600;2022-11-13T12:56:27;29.63;;;21.60;;
40244;SDS011;25963;42.694;23.600;2022-11-13T13:01:47;27.75;;;20.75;;
40244;SDS011;25963;42.694;23.600;2022-11-13T13:07:24;28.45;;;22.42;;
40244;SDS011;25963;42.694;23.600;2022-11-13T13:17:42;29.02;;;22.90;;
40244;SDS011;25963;42.694;23.600;2022-11-13T13:22:39;30.35;;;23.92;;
40244;SDS011;25963;42.694;23.600;2022-11-13T13:25:27;40.13;;;27.27;;
40244;SDS011;25963;42.694;23.600;2022-11-13T13:37:38;40.60;;;28.27;;
40244;SDS011;25963;42.694;23.600;2022-11-13T13:47:48;39.75;;;27.05;;
40244;SDS011;25963;42.694;23.600;2022-11-13T13:50:18;81.05;;;46.83;;
40244;SDS011;25963;42.694;23.600;2022-11-13T13:52:46;41.50;;;26.05;;
40244;SDS011;25963;42.694;23.600;2022-11-13T13:55:18;31.00;;;24.33;;
40244;SDS011;25963;42.694;23.600;2022-11-13T13:57:49;50.35;;;31.15;;
40244;SDS011;25963;42.694;23.600;2022-11-13T14:00:15;54.45;;;35.33;;
40244;SDS011;25963;42.694;23.600;2022-11-13T14:02:47;64.45;;;42.38;;
40244;SDS011;25963;42.694;23.600;2022-11-13T14:07:53;65.47;;;41.88;;
40244;SDS011;25963;42.694;23.600;2022-11-13T14:10:20;31.85;;;23.35;;
40244;SDS011;25963;42.694;23.600;2022-11-13T14:12:47;33.45;;;24.70;;
40244;SDS011;25963;42.694;23.600;2022-11-13T14:15:21;38.53;;;26.90;;
40244;SDS011;25963;42.694;23.600;2022-11-13T14:18:07;38.05;;;24.80;;
40244;SDS011;25963;42.694;23.600;2022-11-13T14:20:56;41.72;;;27.98;;
40244;SDS011;25963;42.694;23.600;2022-11-13T14:23:28;38.08;;;27.38;;
40244;SDS011;25963;42.694;23.600;2022-11-13T14:25:58;46.03;;;31.55;;
40244;SDS011;25963;42.694;23.600;2022-11-13T14:28:25;41.97;;;29.85;;
40244;SDS011;25963;42.694;23.600;2022-11-13T14:30:56;41.10;;;28.85;;
40244;SDS011;25963;42.694;23.600;2022-11-13T14:33:30;73.45;;;42.38;;
40244;SDS011;25963;42.694;23.600;2022-11-13T14:35:59;59.10;;;39.70;;
40244;SDS011;25963;42.694;23.600;2022-11-13T14:38:26;72.10;;;46.25;;
40244;SDS011;25963;42.694;23.600;2022-11-13T14:40:55;304.45;;;147.93;;
40244;SDS011;25963;42.694;23.600;2022-11-13T14:43:29;182.30;;;84.85;;
40244;SDS011;25963;42.694;23.600;2022-11-13T14:45:59;133.85;;;69.55;;
40244;SDS011;25963;42.694;23.600;2022-11-13T14:48:31;81.82;;;45.13;;
40244;SDS011;25963;42.694;23.600;2022-11-13T14:53:43;103.95;;;55.17;;
40244;SDS011;25963;42.694;23.600;2022-11-13T14:56:29;92.32;;;51.47;;
40244;SDS011;25963;42.694;23.600;2022-11-13T14:59:07;159.40;;;77.57;;
40244;SDS011;25963;42.694;23.600;2022-11-13T15:01:37;171.57;;;85.78;;
40244;SDS011;25963;42.694;23.600;2022-11-13T15:04:02;126.47;;;65.85;;
40244;SDS011;25963;42.694;23.600;2022-11-13T15:06:35;75.30;;;43.85;;
40244;SDS011;25963;42.694;23.600;2022-11-13T15:09:03;59.10;;;36.22;;
40244;SDS011;25963;42.694;23.600;2022-11-13T15:11:34;42.58;;;28.10;;
40244;SDS011;25963;42.694;23.600;2022-11-13T15:14:02;52.78;;;31.05;;
40244;SDS011;25963;42.694;23.600;2022-11-13T15:16:28;75.20;;;36.55;;
40244;SDS011;25963;42.694;23.600;2022-11-13T15:18:59;53.90;;;37.28;;
40244;SDS011;25963;42.694;23.600;2022-11-13T15:21:27;52.35;;;36.08;;
40244;SDS011;25963;42.694;23.600;2022-11-13T15:23:53;55.58;;;36.78;;
40244;SDS011;25963;42.694;23.600;2022-11-13T15:26:18;51.60;;;33.80;;
40244;SDS011;25963;42.694;23.600;2022-11-13T15:28:44;50.75;;;32.67;;
40244;SDS011;25963;42.694;23.600;2022-11-13T15:31:43;54.72;;;32.78;;
40244;SDS011;25963;42.694;23.600;2022-11-13T15:34:09;47.08;;;29.23;;
40244;SDS011;25963;42.694;23.600;2022-11-13T15:36:36;69.47;;;39.50;;
40244;SDS011;25963;42.694;23.600;2022-11-13T15:39:01;77.35;;;44.90;;
40244;SDS011;25963;42.694;23.600;2022-11-13T15:41:27;94.63;;;54.30;;
40244;SDS011;25963;42.694;23.600;2022-11-13T15:43:55;81.80;;;48.90;;
40244;SDS011;25963;42.694;23.600;2022-11-13T15:46:21;78.45;;;44.00;;
40244;SDS011;25963;42.694;23.600;2022-11-13T15:48:48;62.97;;;40.90;;
40244;SDS011;25963;42.694;23.600;2022-11-13T15:53:41;78.57;;;45.00;;
40244;SDS011;25963;42.694;23.600;2022-11-13T15:56:07;78.82;;;46.05;;
40244;SDS011;25963;42.694;23.600;2022-11-13T15:58:32;82.03;;;50.35;;
40244;SDS011;25963;42.694;23.600;2022-11-13T16:00:58;71.05;;;42.13;;
40244;SDS011;25963;42.694;23.600;2022-11-13T16:03:23;63.40;;;38.10;;
40244;SDS011;25963;42.694;23.600;2022-11-13T16:05:49;73.90;;;41.47;;
40244;SDS011;25963;42.694;23.600;2022-11-13T16:08:15;70.13;;;42.90;;
40244;SDS011;25963;42.694;23.600;2022-11-13T16:10:41;72.15;;;41.97;;
40244;SDS011;25963;42.694;23.600;2022-11-13T16:13:06;66.55;;;39.72;;
40244;SDS011;25963;42.694;23.600;2022-11-13T16:15:31;60.45;;;36.25;;
40244;SDS011;25963;42.694;23.600;2022-11-13T16:17:57;61.30;;;34.67;;
40244;SDS011;25963;42.694;23.600;2022-11-13T16:20:24;63.72;;;36.28;;
40244;SDS011;25963;42.694;23.600;2022-11-13T16:22:50;60.67;;;38.95;;
40244;SDS011;25963;42.694;23.600;2022-11-13T16:25:16;63.40;;;37.67;;